• Join FlightAware (Why Join?)
  • Login
  • US Flag 
03:02PM EDT


 

Airport Tracker/Info


-or-


 

Live Flight TrackerFlight Track Log ✈ FLG4058 ✈ 09-May-2013 ✈ KDTW - KBHM

Flight Track Log - Related Links

Times and Time Zones

All times are in EDT time to prevent confusion due to time zone crossing. See the FLG4058 flight status page for this flight to view local times or setup timezone preferences in your user account.

Time Position Orientation Groundspeed Altitude Reporting Facility
EDT Latitude Longitude Course Direction KTS MPH feet Rate Location/Type
08:49AM 42.1639 -83.3678 207° Southwest 203 234 30,000  Level Cleveland Center
08:50AM 42.0986 -83.3872 192° South 254 292 4,500 -11,400 Descending Cleveland Center
08:51AM 42.0231 -83.4092 192° South 276 318 7,200 3,000 Climbing Cleveland Center
08:52AM 41.7837 -83.5434 200° South  Level Estimated
08:52AM 42.0083 -83.4197 208° Southwest 279 321 8,300  Level Cleveland Center
08:52AM 41.9492 -83.4450 198° South 288 331 10,100 2,160 Climbing Cleveland Center
08:53AM 41.6765 -83.5906 180° South  Level Estimated
08:53AM 41.9344 -83.4556 208° Southwest 298 343 10,500  Level Cleveland Center
08:53AM 41.8711 -83.4806 196° South 321 369 11,800 1,920 Climbing Cleveland Center
08:54AM 41.5693 -83.6375 194° South  Level Estimated
08:54AM 41.7783 -83.5236 199° South 334 384 13,800  Level Cleveland Center
08:55AM 41.4620 -83.6843 207° Southwest  Level Estimated
08:55AM 41.6897 -83.5669 200° South 344 396 15,700  Level Cleveland Center
08:56AM 41.5889 -83.5983 193° South 360 414 17,200 1,440 Climbing Cleveland Center
08:57AM 41.4817 -83.6294 192° South 378 435 18,600 1,320 Climbing Cleveland Center
08:58AM 41.3819 -83.6939 206° Southwest 393 452 19,900 1,320 Climbing Cleveland Center
08:59AM 41.2800 -83.7636 207° Southwest 400 460 21,300 1,380 Climbing Cleveland Center
09:00AM 41.1861 -83.8336 209° Southwest 400 460 22,700 1,200 Climbing Cleveland Center
09:01AM 41.0883 -83.9031 208° Southwest 405 466 23,700 840 Climbing Cleveland Center
09:02AM 41.0175 -83.9525 208° Southwest 408 470 24,200 780 Climbing Indianapolis Center
09:03AM 40.9156 -84.0258 209° Southwest 414 476 25,100 780 Climbing Indianapolis Center
09:04AM 40.8131 -84.0989 208° Southwest 416 479 25,900 660 Climbing Indianapolis Center
09:05AM 40.7086 -84.1728 208° Southwest 422 486 26,500 480 Climbing Indianapolis Center
09:06AM 40.6022 -84.2478 208° Southwest 430 495 27,000 480 Climbing Indianapolis Center
09:07AM 40.4944 -84.3244 208° Southwest 436 502 27,500 480 Climbing Indianapolis Center
09:08AM 40.3681 -84.4136 208° Southwest 440 506 28,100 480 Climbing Indianapolis Center
09:09AM 40.2583 -84.4897 208° Southwest 442 509 28,600 480 Climbing Indianapolis Center
09:10AM 40.1481 -84.5667 208° Southwest 446 513 29,100 480 Climbing Indianapolis Center
09:11AM 40.0383 -84.6419 208° Southwest 444 511 29,600 420 Climbing Indianapolis Center
09:12AM 39.9283 -84.7189 208° Southwest 445 512 30,000 180 Climbing Indianapolis Center
09:14AM 39.8197 -84.7947 208° Southwest 442 509 30,000  Level Indianapolis Center
09:15AM 39.7064 -84.8617 204° Southwest 443 510 30,000  Level Indianapolis Center
09:16AM 39.5756 -84.9194 199° South 450 518 30,000 -60 Level Indianapolis Center
09:17AM 39.4594 -84.9725 199° South 444 511 29,900 -900 Descending Indianapolis Center
09:18AM 39.3414 -85.0269 200° South 448 516 28,200 -960 Descending Indianapolis Center
09:19AM 39.2269 -85.0794 200° South 441 507 28,000 -120 Descending Indianapolis Center
09:20AM 39.0894 -85.1411 199° South 436 502 28,000  Level Indianapolis Center
09:21AM 38.9731 -85.1933 199° South 443 510 28,000  Level Indianapolis Center
09:22AM 38.8556 -85.2458 199° South 445 512 28,000  Level Indianapolis Center
09:23AM 38.7378 -85.2989 199° South 447 514 28,000  Level Indianapolis Center
09:24AM 38.6183 -85.3508 199° South 451 519 28,000  Level Indianapolis Center
09:25AM 38.4997 -85.4044 199° South 449 517 28,000  Level Indianapolis Center
09:26AM 38.3778 -85.4578 199° South 454 522 28,000  Level Indianapolis Center
09:27AM 38.2364 -85.5200 199° South 451 519 28,000  Level Indianapolis Center
09:28AM 38.1181 -85.5725 199° South 448 516 28,000  Level Indianapolis Center
09:29AM 38.0039 -85.6353 203° Southwest 445 512 28,000  Level Indianapolis Center
09:30AM 37.8900 -85.7008 204° Southwest 446 513 28,000  Level Indianapolis Center
09:31AM 37.7783 -85.7653 205° Southwest 441 507 28,000  Level Indianapolis Center
09:32AM 37.6650 -85.8303 204° Southwest 441 507 28,000  Level Indianapolis Center
09:33AM 37.5425 -85.9022 205° Southwest 435 501 28,000  Level Indianapolis Center
09:34AM 37.4314 -85.9647 204° Southwest 432 497 28,000  Level Indianapolis Center
09:35AM 37.3206 -86.0272 204° Southwest 432 497 28,000  Level Indianapolis Center
09:36AM 37.2103 -86.0897 204° Southwest 430 495 28,000  Level Indianapolis Center
09:37AM 37.0967 -86.1439 201° Southwest 433 498 28,000  Level Indianapolis Center
09:38AM 36.9756 -86.1658 188° South 430 495 28,000  Level Memphis Center
09:39AM 36.8453 -86.1958 190° South 438 504 28,000  Level Memphis Center
09:40AM 36.7275 -86.2203 189° South 443 510 28,000  Level Memphis Center
09:41AM 36.6075 -86.2469 190° South 449 517 28,000  Level Memphis Center
09:42AM 36.4875 -86.2736 190° South 444 511 28,000  Level Memphis Center
09:43AM 36.3672 -86.2978 189° South 444 511 28,000  Level Memphis Center
09:44AM 36.2472 -86.3244 190° South 444 511 28,000  Level Memphis Center
09:45AM 36.1417 -86.3475 190° South 444 511 28,000  Level Memphis Center
09:46AM 36.0236 -86.3739 190° South 444 511 28,000  Level Memphis Center
09:47AM 35.9036 -86.4003 190° South 444 511 28,000  Level Memphis Center
09:48AM 35.7833 -86.4239 189° South 444 511 28,000  Level Memphis Center
09:50AM 35.5167 -86.4806 190° South 445 512 28,000  Level Atlanta Center
09:51AM 35.3908 -86.5100 191° South 439 505 28,000 -60 Level Atlanta Center
09:52AM 35.2717 -86.5344 190° South 434 499 27,900 -840 Descending Atlanta Center
09:54AM 35.0831 -86.5761 190° South 424 488 25,900 -1,200 Descending Memphis Center
09:55AM 34.9692 -86.5992 189° South 424 488 24,900 -960 Descending Memphis Center
09:56AM 34.8531 -86.6219 189° South 424 488 24,000 -720 Descending Memphis Center
09:57AM 34.7431 -86.6469 191° South 424 488 23,500 -1,560 Descending Memphis Center
09:58AM 34.6333 -86.6744 192° South 414 476 20,900 -2,580 Descending Memphis Center
09:59AM 34.5297 -86.6967 190° South 403 464 18,400 -2,160 Descending Memphis Center
10:00AM 34.4119 -86.7253 191° South 384 442 16,200 -1,980 Descending Atlanta Center
10:01AM 34.3156 -86.7475 191° South 365 420 14,100 -2,100 Descending Atlanta Center
10:02AM 34.2211 -86.7719 192° South 354 407 12,100 -1,560 Descending Atlanta Center
10:03AM 34.1286 -86.7942 191° South 354 407 11,000 -600 Descending Atlanta Center
10:04AM 34.0364 -86.8139 190° South 349 402 11,000 -120 Level Atlanta Center
10:05AM 33.9650 -86.8364 195° South 315 362 10,800 -1,140 Descending Atlanta Center
10:06AM 33.8872 -86.8539 191° South 285 328 9,000 -1,800 Descending Atlanta Center
10:07AM 33.8117 -86.8764 194° South 276 318 7,200 -1,500 Descending Atlanta Center
10:08AM 33.7422 -86.8967 194° South 264 304 6,000 -780 Descending Atlanta Center
10:09AM 33.6750 -86.9144 192° South 256 295 5,600 -360 Descending Atlanta Center